Time;durP1;ratioP1;P1;durP2;ratioP2;P2;SDS_P1;SDS_P2;PMS_P1;PMS_P2;Temp;Humidity;BMP_temperature;BMP_pressure;BME280_temperature;BME280_humidity;BME280_pressure;Samples;Min_cycle;Max_cycle;Signal;HPM_P1;HPM_P2
2022/08/04 00:01:27;;;;;;;5.20;4.05;;;19.30;99.90;;;;;;5153720;28;20096;-75
2022/08/04 00:04:31;;;;;;;6.97;4.45;;;19.30;99.90;;;;;;5186941;28;20038;-75
2022/08/04 00:07:16;;;;;;;6.63;3.95;;;19.30;99.90;;;;;;5187204;28;20025;-75
2022/08/04 00:09:54;;;;;;;5.70;4.18;;;19.20;99.90;;;;;;5186754;28;20163;-76
2022/08/04 00:12:29;;;;;;;5.85;4.57;;;19.40;99.90;;;;;;5186985;28;20052;-75
2022/08/04 00:15:04;;;;;;;5.97;4.07;;;19.40;99.90;;;;;;5186611;28;20040;-75
2022/08/04 00:17:48;;;;;;;6.55;4.47;;;19.40;99.90;;;;;;5186784;28;20029;-76
2022/08/04 00:20:19;;;;;;;5.03;4.25;;;19.30;99.90;;;;;;5187046;28;20041;-75
2022/08/04 00:22:52;;;;;;;5.40;4.25;;;19.30;99.90;;;;;;5186780;28;20040;-76
2022/08/04 00:25:24;;;;;;;5.63;4.18;;;19.50;99.90;;;;;;5186354;28;20049;-76
2022/08/04 00:27:55;;;;;;;6.78;4.28;;;19.30;99.90;;;;;;5186789;28;20022;-77
2022/08/04 00:30:26;;;;;;;5.43;4.07;;;19.30;99.90;;;;;;5186577;28;20034;-77
2022/08/04 00:32:57;;;;;;;5.68;4.00;;;19.10;99.90;;;;;;5186447;28;20010;-77
2022/08/04 00:35:28;;;;;;;5.50;4.40;;;19.20;99.90;;;;;;5186589;28;20479;-76
2022/08/04 00:38:00;;;;;;;5.68;4.38;;;19.10;99.90;;;;;;5186444;28;20097;-76
2022/08/04 00:40:35;;;;;;;4.88;3.95;;;19.30;99.90;;;;;;5185976;28;20065;-76
2022/08/04 00:43:24;;;;;;;7.10;4.63;;;19.20;99.90;;;;;;5186411;28;20029;-76
2022/08/04 00:46:24;;;;;;;5.53;3.92;;;19.20;99.90;;;;;;5186449;28;20026;-76
2022/08/04 00:48:57;;;;;;;5.95;4.10;;;19.10;99.90;;;;;;5186376;28;20032;-75
2022/08/04 00:51:37;;;;;;;5.45;4.28;;;19.10;99.90;;;;;;5186568;28;20347;-77
2022/08/04 00:54:21;;;;;;;5.05;3.97;;;19.20;99.90;;;;;;5186081;28;20041;-77
2022/08/04 00:57:37;;;;;;;5.18;4.40;;;19.20;99.90;;;;;;5186179;28;20100;-76
2022/08/04 01:00:13;;;;;;;6.80;4.53;;;19.10;99.90;;;;;;5186180;28;20116;-76
2022/08/04 01:02:58;;;;;;;5.38;4.20;;;18.90;99.90;;;;;;5185967;28;20040;-75
2022/08/04 01:05:53;;;;;;;4.82;4.18;;;19.00;99.90;;;;;;5186342;28;20150;-75
2022/08/04 01:08:27;;;;;;;4.38;3.92;;;19.10;99.90;;;;;;5186188;28;20060;-75
2022/08/04 01:11:26;;;;;;;4.07;3.67;;;19.00;99.90;;;;;;5186415;28;20029;-76
2022/08/04 01:14:08;;;;;;;3.88;3.47;;;19.10;99.90;;;;;;5186294;28;20085;-75
2022/08/04 01:16:49;;;;;;;4.70;3.90;;;19.00;99.90;;;;;;5186300;28;20030;-75
2022/08/04 01:20:00;;;;;;;5.18;3.97;;;18.90;99.90;;;;;;5186373;28;20428;-75
2022/08/04 01:22:30;;;;;;;4.07;3.67;;;19.10;99.90;;;;;;5186147;28;20113;-75
2022/08/04 01:25:13;;;;;;;4.22;3.75;;;19.10;99.90;;;;;;5185805;28;20121;-75
2022/08/04 01:28:06;;;;;;;5.70;3.90;;;19.00;99.90;;;;;;5186123;28;20490;-75
2022/08/04 01:30:41;;;;;;;6.80;3.90;;;19.00;99.90;;;;;;5185682;28;20041;-75
2022/08/04 01:33:16;;;;;;;5.90;4.53;;;19.00;99.90;;;;;;5185794;28;20048;-77
2022/08/04 01:35:55;;;;;;;4.30;3.75;;;19.00;99.90;;;;;;5185602;28;20030;-76
2022/08/04 01:38:39;;;;;;;5.30;4.43;;;19.00;99.90;;;;;;5185893;28;20496;-76
2022/08/04 01:41:14;;;;;;;5.38;4.32;;;19.10;99.90;;;;;;5185715;28;20034;-76
2022/08/04 01:43:45;;;;;;;7.53;4.53;;;19.00;99.90;;;;;;5185716;28;20478;-75
2022/08/04 01:46:17;;;;;;;5.38;4.70;;;19.10;99.90;;;;;;5185549;28;20040;-76
2022/08/04 01:48:53;;;;;;;5.97;4.82;;;19.00;99.90;;;;;;5185523;28;20049;-76
2022/08/04 01:51:24;;;;;;;5.95;4.80;;;19.10;99.90;;;;;;5185770;28;20029;-75
2022/08/04 01:53:55;;;;;;;5.22;4.32;;;19.20;99.90;;;;;;5185347;28;20148;-76
2022/08/04 01:56:28;;;;;;;4.72;3.97;;;19.10;99.90;;;;;;5185320;28;20438;-75
2022/08/04 01:59:01;;;;;;;7.20;4.85;;;19.10;99.90;;;;;;5185767;28;20348;-75
2022/08/04 02:01:35;;;;;;;5.00;4.18;;;19.10;99.90;;;;;;5187616;28;20038;-76
2022/08/04 02:04:06;;;;;;;6.85;5.13;;;19.10;99.90;;;;;;5189308;28;20350;-76
2022/08/04 02:06:48;;;;;;;4.95;4.45;;;19.10;99.90;;;;;;5189118;28;20032;-77
2022/08/04 02:09:50;;;;;;;5.40;4.63;;;19.10;99.90;;;;;;5189327;28;20018;-75
2022/08/04 02:12:35;;;;;;;5.93;4.90;;;19.10;99.90;;;;;;5164784;28;20045;-75
2022/08/04 02:15:13;;;;;;;6.57;4.32;;;19.10;99.90;;;;;;5189161;28;20091;-76
2022/08/04 02:17:53;;;;;;;5.00;4.40;;;19.10;99.90;;;;;;5189701;28;20482;-75
2022/08/04 02:20:31;;;;;;;5.72;4.30;;;19.10;99.90;;;;;;5189143;28;20076;-75
2022/08/04 02:23:13;;;;;;;5.28;4.25;;;19.20;99.90;;;;;;5189261;28;20092;-78
2022/08/04 02:25:59;;;;;;;5.43;4.68;;;19.30;99.90;;;;;;5188461;28;20141;-75
2022/08/04 02:28:57;;;;;;;8.45;4.40;;;19.30;99.90;;;;;;5189157;28;20100;-75
2022/08/04 02:31:47;;;;;;;5.45;4.47;;;19.30;99.90;;;;;;5188923;28;20080;-75
2022/08/04 02:34:32;;;;;;;5.78;4.35;;;19.30;99.90;;;;;;5188560;28;20045;-75
2022/08/04 02:37:03;;;;;;;5.00;4.45;;;19.40;99.90;;;;;;5188890;28;20532;-76
2022/08/04 02:39:35;;;;;;;6.10;4.85;;;19.40;99.90;;;;;;5188891;28;20032;-76
2022/08/04 02:42:07;;;;;;;7.28;5.10;;;19.40;99.90;;;;;;5188926;28;20026;-75
2022/08/04 02:44:38;;;;;;;5.50;4.57;;;19.30;99.90;;;;;;5188970;28;20392;-75
2022/08/04 02:47:10;;;;;;;5.47;4.30;;;19.30;99.90;;;;;;5188740;28;20030;-75
2022/08/04 02:49:44;;;;;;;6.38;5.38;;;19.20;99.90;;;;;;5189056;28;20454;-76
2022/08/04 02:52:17;;;;;;;6.40;4.85;;;19.40;99.90;;;;;;5188579;28;20492;-78
2022/08/04 02:54:52;;;;;;;5.25;4.57;;;19.30;99.90;;;;;;5188175;28;20046;-75
2022/08/04 02:57:25;;;;;;;6.13;4.68;;;19.20;99.90;;;;;;5188606;28;20044;-75
2022/08/04 03:00:09;;;;;;;6.00;4.85;;;19.30;99.90;;;;;;5188391;28;20030;-75
2022/08/04 03:02:58;;;;;;;6.20;4.85;;;19.20;99.90;;;;;;5188424;28;20034;-75
2022/08/04 03:06:08;;;;;;;5.57;4.22;;;19.30;99.90;;;;;;5188323;28;20034;-76
2022/08/04 03:09:00;;;;;;;5.60;4.40;;;19.30;99.90;;;;;;5188263;28;20429;-75
2022/08/04 03:12:10;;;;;;;5.60;4.28;;;19.30;99.90;;;;;;5188185;28;20477;-76
2022/08/04 03:15:17;;;;;;;6.63;4.90;;;19.30;99.90;;;;;;5188027;28;20077;-76
2022/08/04 03:17:51;;;;;;;4.82;4.40;;;19.30;99.90;;;;;;5188090;28;20482;-76
2022/08/04 03:21:04;;;;;;;5.57;4.35;;;19.30;99.90;;;;;;5187670;28;20077;-76
2022/08/04 03:23:57;;;;;;;6.80;5.43;;;19.40;99.90;;;;;;5171859;28;20038;-75
2022/08/04 03:26:49;;;;;;;5.45;4.78;;;19.50;99.90;;;;;;5187657;28;20065;-75
2022/08/04 03:29:55;;;;;;;6.25;5.13;;;19.50;99.90;;;;;;5187977;28;20032;-76
2022/08/04 03:32:38;;;;;;;8.32;5.00;;;19.60;99.90;;;;;;5154623;28;20034;-75
2022/08/04 03:35:40;;;;;;;6.05;5.03;;;19.60;99.90;;;;;;5187338;28;20453;-75
2022/08/04 03:38:33;;;;;;;6.13;5.18;;;19.70;99.90;;;;;;5187465;28;20026;-76
2022/08/04 03:41:03;;;;;;;5.15;4.65;;;19.80;99.90;;;;;;5187383;28;20121;-76
2022/08/04 03:43:52;;;;;;;5.82;5.22;;;19.80;99.90;;;;;;5186969;28;20110;-75
2022/08/04 03:46:46;;;;;;;6.90;5.03;;;19.90;99.90;;;;;;5187165;28;20033;-75
2022/08/04 03:49:38;;;;;;;7.10;5.13;;;19.90;99.90;;;;;;5187199;28;20026;-76
2022/08/04 03:53:09;;;;;;;6.32;5.03;;;20.00;99.90;;;;;;5186957;28;20061;-76
2022/08/04 03:56:04;;;;;;;5.95;5.35;;;20.20;99.90;;;;;;5186720;28;20038;-76
2022/08/04 03:58:35;;;;;;;6.45;5.75;;;20.30;99.90;;;;;;5187105;28;20030;-76
2022/08/04 04:01:36;;;;;;;5.65;4.93;;;20.50;99.90;;;;;;5186732;28;20036;-75
2022/08/04 04:04:07;;;;;;;5.88;5.13;;;20.60;99.90;;;;;;5186675;28;20489;-76
2022/08/04 04:07:11;;;;;;;6.03;5.43;;;20.80;99.90;;;;;;5186692;28;20033;-75
2022/08/04 04:09:59;;;;;;;5.50;4.72;;;20.80;99.90;;;;;;5186797;28;20038;-75
2022/08/04 04:12:48;;;;;;;5.93;5.15;;;21.00;99.90;;;;;;5186699;28;20470;-76
2022/08/04 04:15:42;;;;;;;6.40;4.90;;;21.10;99.90;;;;;;5186433;28;20509;-76
2022/08/04 04:18:39;;;;;;;4.57;3.90;;;21.30;99.90;;;;;;5147161;28;20092;-75
2022/08/04 04:21:31;;;;;;;5.35;4.63;;;21.50;99.90;;;;;;5155052;28;20061;-75
2022/08/04 04:24:32;;;;;;;5.07;4.03;;;21.70;99.90;;;;;;5165707;28;20030;-76
2022/08/04 04:27:08;;;;;;;4.18;3.67;;;22.00;99.90;;;;;;5165872;28;20560;-76
2022/08/04 04:29:50;;;;;;;3.20;2.85;;;22.00;99.90;;;;;;5165774;28;20030;-76
2022/08/04 04:33:02;;;;;;;3.22;2.80;;;22.10;99.90;;;;;;5166100;28;20034;-75
2022/08/04 04:35:58;;;;;;;3.42;2.60;;;22.20;99.90;;;;;;5162114;28;20521;-76
2022/08/04 04:39:20;;;;;;;2.95;2.65;;;22.50;99.90;;;;;;5165791;28;20031;-75
2022/08/04 04:42:28;;;;;;;2.10;1.90;;;22.60;99.90;;;;;;5165803;28;20038;-76
2022/08/04 04:45:30;;;;;;;2.30;2.08;;;22.70;99.90;;;;;;5165946;28;20463;-76
2022/08/04 04:48:15;;;;;;;2.75;2.25;;;22.80;99.90;;;;;;5165721;28;20023;-75
2022/08/04 04:51:18;;;;;;;2.65;2.00;;;23.00;99.90;;;;;;5165630;28;20126;-75
2022/08/04 04:54:07;;;;;;;3.22;1.75;;;23.00;99.90;;;;;;5164430;28;20026;-76
2022/08/04 04:57:08;;;;;;;2.60;1.65;;;23.10;99.90;;;;;;5165508;28;20035;-75
2022/08/04 04:59:48;;;;;;;1.80;1.40;;;23.30;99.90;;;;;;5165710;28;20049;-77
2022/08/04 05:02:35;;;;;;;1.73;1.38;;;23.40;99.90;;;;;;5165666;28;20105;-75
2022/08/04 05:05:32;;;;;;;2.10;1.63;;;23.70;99.90;;;;;;5173400;28;20065;-75
2022/08/04 05:08:05;;;;;;;1.50;1.40;;;23.70;99.90;;;;;;5185995;28;20018;-79
2022/08/04 05:10:48;;;;;;;1.48;1.17;;;23.70;99.90;;;;;;5186244;28;20026;-75
2022/08/04 05:13:33;;;;;;;1.40;1.20;;;23.70;99.90;;;;;;5185802;28;20033;-78
2022/08/04 05:16:22;;;;;;;1.42;1.15;;;23.80;99.90;;;;;;5162215;28;20042;-76
2022/08/04 05:19:20;;;;;;;1.60;1.00;;;23.90;99.90;;;;;;5179741;28;20030;-77
2022/08/04 05:22:08;;;;;;;1.25;1.13;;;24.00;99.90;;;;;;5165037;28;20034;-76
2022/08/04 05:24:46;;;;;;;1.42;1.08;;;24.20;99.90;;;;;;5180637;28;20036;-76
2022/08/04 05:27:23;;;;;;;1.15;1.05;;;24.20;99.90;;;;;;5171417;28;20040;-76
2022/08/04 05:29:59;;;;;;;0.85;0.80;;;24.30;99.90;;;;;;5170377;28;20382;-76
2022/08/04 05:33:10;;;;;;;1.63;1.00;;;24.30;99.90;;;;;;5165398;28;20019;-77
2022/08/04 05:35:48;;;;;;;1.13;1.02;;;24.50;99.90;;;;;;5114844;28;20035;-74
2022/08/04 05:38:23;;;;;;;1.17;0.70;;;24.60;99.90;;;;;;5119132;29;20028;-76
2022/08/04 05:40:56;;;;;;;1.10;0.88;;;24.60;99.90;;;;;;5103217;29;20543;-76
2022/08/04 05:43:27;;;;;;;0.98;0.80;;;24.70;99.90;;;;;;5106477;29;20116;-75
2022/08/04 05:46:01;;;;;;;1.40;0.90;;;24.80;99.90;;;;;;5120514;29;20386;-75
2022/08/04 05:48:33;;;;;;;1.45;1.10;;;24.90;99.90;;;;;;5094938;29;20376;-75
2022/08/04 05:51:05;;;;;;;1.38;1.20;;;25.00;99.90;;;;;;5097140;29;20038;-75
2022/08/04 05:53:37;;;;;;;1.48;0.90;;;25.00;99.90;;;;;;5113273;29;20071;-75
2022/08/04 05:56:10;;;;;;;1.70;1.00;;;25.10;99.90;;;;;;5121975;29;20066;-76
2022/08/04 05:58:48;;;;;;;1.13;0.73;;;24.80;99.90;;;;;;5106438;29;20526;-75
2022/08/04 06:01:20;;;;;;;0.90;0.70;;;25.00;99.90;;;;;;5109406;29;20634;-76
2022/08/04 06:03:54;;;;;;;1.35;0.80;;;25.00;99.90;;;;;;5125786;29;20039;-76
2022/08/04 06:06:25;;;;;;;2.15;0.88;;;25.00;99.90;;;;;;5142411;28;20156;-76
2022/08/04 06:08:56;;;;;;;1.35;1.00;;;25.20;99.90;;;;;;5187517;28;20418;-75
2022/08/04 06:11:28;;;;;;;2.70;0.93;;;25.30;99.90;;;;;;5176874;28;20053;-76
2022/08/04 06:14:03;;;;;;;1.02;0.93;;;25.50;99.90;;;;;;5183260;28;20038;-76
2022/08/04 06:16:38;;;;;;;1.00;0.80;;;25.50;99.90;;;;;;5169413;28;20033;-76
2022/08/04 06:19:14;;;;;;;1.20;0.90;;;25.60;99.90;;;;;;5167937;28;20485;-76
2022/08/04 06:21:47;;;;;;;0.93;0.88;;;25.40;99.90;;;;;;5169810;28;20077;-76
2022/08/04 06:24:22;;;;;;;1.10;0.82;;;25.50;99.90;;;;;;5184553;28;20468;-75
2022/08/04 06:26:54;;;;;;;2.33;0.85;;;25.50;99.90;;;;;;5174687;28;20046;-75
2022/08/04 06:29:35;;;;;;;1.10;0.93;;;25.90;99.90;;;;;;5166251;28;20030;-75
2022/08/04 06:32:35;;;;;;;1.50;1.00;;;25.70;99.90;;;;;;5183712;28;20096;-76
2022/08/04 06:35:00;;;;;;;1.40;0.95;;;26.00;99.90;;;;;;5174458;28;20045;-75
2022/08/04 06:37:33;;;;;;;1.52;1.10;;;25.90;99.90;;;;;;5186773;28;20473;-75
2022/08/04 06:40:06;;;;;;;1.13;1.00;;;25.90;99.90;;;;;;5169965;28;20022;-76
2022/08/04 06:42:37;;;;;;;1.13;1.02;;;26.10;99.90;;;;;;5171938;28;20478;-75
2022/08/04 06:45:11;;;;;;;1.90;1.10;;;26.50;99.90;;;;;;5179398;28;20036;-75
2022/08/04 06:47:43;;;;;;;0.80;0.77;;;26.50;99.90;;;;;;5178056;28;20030;-75
2022/08/04 06:50:15;;;;;;;0.75;0.75;;;26.20;99.90;;;;;;5170042;28;20110;-75
2022/08/04 06:52:45;;;;;;;1.40;1.10;;;26.30;99.90;;;;;;5180681;28;20470;-75
2022/08/04 06:55:16;;;;;;;2.42;0.90;;;26.10;99.90;;;;;;5176259;28;20048;-75
2022/08/04 06:57:47;;;;;;;1.15;0.85;;;26.10;99.90;;;;;;5186268;28;20045;-75
2022/08/04 07:00:23;;;;;;;1.27;0.98;;;25.90;99.90;;;;;;5169444;28;20038;-76
2022/08/04 07:02:54;;;;;;;0.90;0.82;;;25.60;99.90;;;;;;5173610;28;20032;-74
2022/08/04 07:05:26;;;;;;;0.80;0.80;;;25.70;99.90;;;;;;5176544;28;20026;-75
2022/08/04 07:07:57;;;;;;;0.80;0.73;;;26.10;99.90;;;;;;5181119;28;20029;-76
2022/08/04 07:10:30;;;;;;;1.67;0.85;;;26.50;99.90;;;;;;5188196;28;20028;-76
2022/08/04 07:13:02;;;;;;;1.13;0.80;;;26.30;99.90;;;;;;5179897;28;20034;-77
2022/08/04 07:15:34;;;;;;;1.13;0.95;;;26.30;99.90;;;;;;5179398;28;20045;-78
2022/08/04 07:18:05;;;;;;;0.98;0.90;;;25.90;99.90;;;;;;5186444;28;20040;-77
2022/08/04 07:20:44;;;;;;;1.15;1.05;;;26.00;99.90;;;;;;5170398;28;20025;-75
2022/08/04 07:23:16;;;;;;;1.42;1.10;;;25.70;99.90;;;;;;5177894;28;20022;-76
2022/08/04 07:25:54;;;;;;;1.10;1.00;;;25.80;99.90;;;;;;5180357;28;20050;-76
2022/08/04 07:28:27;;;;;;;1.02;0.85;;;26.30;99.90;;;;;;5169608;28;20042;-75
2022/08/04 07:30:59;;;;;;;0.95;0.85;;;25.90;99.90;;;;;;5178510;28;20061;-78
2022/08/04 07:33:31;;;;;;;1.10;1.00;;;26.00;99.90;;;;;;5177015;28;20033;-77
2022/08/04 07:36:01;;;;;;;1.35;0.90;;;26.30;99.90;;;;;;5184453;28;20080;-77
2022/08/04 07:38:33;;;;;;;0.88;0.63;;;26.50;99.90;;;;;;5183178;28;20034;-75
2022/08/04 07:41:05;;;;;;;1.63;1.33;;;26.60;99.90;;;;;;5178414;28;20131;-75
2022/08/04 07:43:37;;;;;;;2.97;1.40;;;26.30;99.90;;;;;;5178649;28;20026;-74
2022/08/04 07:46:09;;;;;;;1.73;1.20;;;25.90;99.90;;;;;;5186631;28;20068;-76
2022/08/04 07:48:40;;;;;;;1.45;1.10;;;26.40;99.90;;;;;;5175416;28;20033;-74
2022/08/04 07:51:11;;;;;;;3.80;2.00;;;26.30;99.90;;;;;;5185571;28;20493;-76
2022/08/04 07:53:43;;;;;;;3.97;1.65;;;26.30;99.90;;;;;;5180332;28;20390;-76
2022/08/04 07:56:15;;;;;;;2.72;1.38;;;26.60;99.90;;;;;;5170083;28;20042;-77
2022/08/04 07:58:46;;;;;;;3.28;1.60;;;26.90;99.90;;;;;;5178918;28;20117;-75
2022/08/04 08:01:18;;;;;;;2.95;1.60;;;26.50;99.90;;;;;;5176078;28;20418;-76
2022/08/04 08:03:51;;;;;;;1.77;1.17;;;26.50;99.90;;;;;;5172222;28;20034;-75
2022/08/04 08:06:23;;;;;;;1.92;1.20;;;26.50;99.90;;;;;;5183120;28;20018;-75
2022/08/04 08:08:55;;;;;;;1.45;1.00;;;26.50;99.90;;;;;;5178335;28;20034;-75
2022/08/04 08:11:26;;;;;;;2.53;1.42;;;26.20;99.90;;;;;;5166053;28;20105;-75
2022/08/04 08:13:58;;;;;;;3.40;2.28;;;26.60;99.90;;;;;;5167518;28;20034;-76
2022/08/04 08:16:32;;;;;;;2.55;1.77;;;26.20;99.90;;;;;;5181893;28;20038;-75
2022/08/04 08:19:03;;;;;;;5.65;3.55;;;26.90;99.90;;;;;;5180002;28;20465;-78
2022/08/04 08:21:34;;;;;;;4.47;2.40;;;26.90;99.90;;;;;;5175449;28;20484;-77
2022/08/04 08:24:06;;;;;;;5.50;3.63;;;27.20;99.90;;;;;;5169634;28;20045;-76
2022/08/04 08:26:37;;;;;;;3.72;2.08;;;27.20;99.90;;;;;;5181486;28;20093;-76
2022/08/04 08:29:08;;;;;;;2.85;1.70;;;27.20;99.90;;;;;;5173053;28;20473;-76
2022/08/04 08:31:39;;;;;;;7.10;3.28;;;27.60;99.90;;;;;;5186410;28;20025;-75
2022/08/04 08:34:13;;;;;;;2.40;1.42;;;27.20;99.90;;;;;;5168609;28;20034;-76
2022/08/04 08:36:56;;;;;;;2.47;1.52;;;27.20;99.90;;;;;;5180693;28;20026;-76
2022/08/04 08:39:52;;;;;;;2.20;1.88;;;27.60;99.90;;;;;;5177319;28;20038;-76
2022/08/04 08:42:51;;;;;;;4.40;2.22;;;27.60;99.90;;;;;;5169617;28;20065;-78
2022/08/04 08:45:52;;;;;;;3.87;2.07;;;27.20;99.90;;;;;;5174750;28;20026;-77
2022/08/04 08:48:52;;;;;;;3.10;1.90;;;27.30;99.90;;;;;;5195773;28;20030;-77
2022/08/04 08:51:42;;;;;;;3.13;2.10;;;27.10;99.90;;;;;;5165774;28;20038;-77
2022/08/04 08:54:36;;;;;;;2.33;1.70;;;26.90;99.90;;;;;;5181217;28;20042;-76
2022/08/04 08:57:41;;;;;;;3.17;1.40;;;26.70;99.90;;;;;;5173574;28;20046;-77
2022/08/04 09:00:49;;;;;;;2.28;1.38;;;26.90;99.90;;;;;;5184814;28;20030;-76
2022/08/04 09:04:02;;;;;;;1.48;1.25;;;26.90;99.90;;;;;;5174656;28;20022;-78
2022/08/04 09:06:44;;;;;;;3.60;2.38;;;27.60;99.90;;;;;;5133014;28;20101;-77
2022/08/04 09:09:29;;;;;;;3.10;1.73;;;27.80;99.90;;;;;;5179607;28;20092;-77
2022/08/04 09:12:24;;;;;;;1.58;1.08;;;27.80;99.90;;;;;;5174464;28;20022;-79
2022/08/04 09:14:59;;;;;;;3.13;0.90;;;28.10;99.90;;;;;;5171969;28;20035;-78
2022/08/04 09:17:54;;;;;;;2.30;1.30;;;27.80;99.90;;;;;;5184088;28;20029;-78
2022/08/04 09:20:46;;;;;;;2.15;1.10;;;28.00;99.90;;;;;;5172513;28;20033;-78
2022/08/04 09:23:38;;;;;;;2.33;1.73;;;28.50;99.90;;;;;;5182784;28;20023;-78
2022/08/04 09:26:41;;;;;;;2.60;1.65;;;28.10;99.90;;;;;;5200264;28;20811;-75
2022/08/04 09:29:33;;;;;;;4.80;1.50;;;28.10;99.90;;;;;;5178024;28;20042;-76
2022/08/04 09:32:33;;;;;;;2.00;1.52;;;28.70;99.90;;;;;;5185217;28;20026;-76
2022/08/04 09:35:25;;;;;;;2.60;1.73;;;28.70;99.90;;;;;;5177279;28;20553;-78
2022/08/04 09:38:37;;;;;;;2.50;1.80;;;28.10;99.90;;;;;;5189669;28;20022;-76
2022/08/04 09:41:32;;;;;;;1.60;1.35;;;28.20;99.90;;;;;;5175967;28;20033;-76
2022/08/04 09:44:24;;;;;;;2.28;1.50;;;27.80;99.90;;;;;;5183244;28;20025;-78
2022/08/04 09:47:36;;;;;;;2.38;1.42;;;27.60;99.90;;;;;;5173429;28;20026;-76
2022/08/04 09:50:15;;;;;;;2.38;1.80;;;27.90;99.90;;;;;;5171623;28;20485;-78
2022/08/04 09:52:57;;;;;;;2.28;1.70;;;27.70;99.90;;;;;;5167635;28;20101;-76
2022/08/04 09:55:56;;;;;;;1.95;1.50;;;28.40;99.90;;;;;;5178858;28;20049;-76
2022/08/04 09:59:14;;;;;;;2.27;1.90;;;28.30;99.90;;;;;;5172750;28;20030;-77
2022/08/04 10:01:49;;;;;;;3.97;2.47;;;27.80;99.90;;;;;;5163974;28;20368;-78
2022/08/04 10:04:21;;;;;;;2.40;2.20;;;28.60;99.90;;;;;;5187056;28;20065;-77
2022/08/04 10:07:10;;;;;;;2.22;1.50;;;29.00;99.90;;;;;;5185616;28;20026;-78
2022/08/04 10:09:40;;;;;;;;;;;28.20;99.90;;;;;;5186036;28;20033;-75
2022/08/04 10:12:30;;;;;;;2.03;1.70;;;28.00;99.90;;;;;;5184861;28;19913;-76
2022/08/04 10:15:10;;;;;;;;;;;28.00;99.90;;;;;;5188411;28;20030;-76
2022/08/04 10:17:55;;;;;;;3.00;2.00;;;28.20;99.90;;;;;;5174040;28;19909;-76
2022/08/04 10:20:54;;;;;;;1.45;1.33;;;28.70;99.90;;;;;;5179406;28;20026;-76
2022/08/04 10:24:02;;;;;;;3.90;2.33;;;28.60;99.90;;;;;;5188133;28;20101;-75
2022/08/04 10:26:47;;;;;;;1.77;1.38;;;28.40;99.90;;;;;;5188112;28;20292;-75
2022/08/04 10:29:37;;;;;;;2.60;2.10;;;28.50;99.90;;;;;;5188678;28;20528;-77
2022/08/04 10:32:24;;;;;;;5.25;1.83;;;28.90;99.90;;;;;;5170788;28;20041;-76
2022/08/04 10:35:06;;;;;;;2.97;1.48;;;29.30;99.90;;;;;;5181742;28;20034;-77
2022/08/04 10:37:55;;;;;;;2.50;1.50;;;28.50;99.90;;;;;;5166922;28;20030;-76
2022/08/04 10:40:35;;;;;;;;;;;27.90;99.90;;;;;;5184627;28;20039;-75
2022/08/04 10:43:08;;;;;;;;;;;28.10;99.90;;;;;;5168419;28;20263;-76
2022/08/04 10:45:45;;;;;;;2.50;1.90;;;28.00;99.90;;;;;;5175811;28;20312;-75
2022/08/04 10:48:31;;;;;;;2.58;2.17;;;27.60;99.90;;;;;;5171672;28;20061;-78
2022/08/04 10:51:29;;;;;;;4.20;2.20;;;28.30;99.90;;;;;;5187044;28;20036;-77
2022/08/04 10:54:04;;;;;;;5.47;2.47;;;27.80;99.90;;;;;;5135654;28;20043;-74
2022/08/04 10:56:57;;;;;;;9.02;3.03;;;27.50;99.90;;;;;;5186992;28;20049;-76
2022/08/04 10:59:37;;;;;;;3.65;1.90;;;27.90;99.90;;;;;;5188037;28;20101;-77
2022/08/04 11:02:24;;;;;;;3.15;1.95;;;28.50;99.90;;;;;;5170984;28;20087;-77
2022/08/04 11:05:01;;;;;;;2.88;1.88;;;28.30;99.90;;;;;;5167692;28;20477;-77
2022/08/04 11:07:34;;;;;;;3.08;1.83;;;28.60;99.90;;;;;;5167495;28;20033;-77
2022/08/04 11:10:06;;;;;;;2.38;1.90;;;28.30;99.90;;;;;;5167461;28;20027;-75
2022/08/04 11:12:39;;;;;;;3.55;1.95;;;29.00;99.90;;;;;;5171795;28;20069;-75
2022/08/04 11:15:17;;;;;;;2.30;1.83;;;28.70;99.90;;;;;;5186203;28;20074;-76
2022/08/04 11:18:00;;;;;;;3.17;2.20;;;28.60;99.90;;;;;;5184916;28;20105;-76
2022/08/04 11:20:41;;;;;;;2.47;1.92;;;28.40;99.90;;;;;;5174602;28;20159;-76
2022/08/04 11:23:17;;;;;;;4.15;2.42;;;28.70;99.90;;;;;;5178469;28;20026;-76
2022/08/04 11:26:12;;;;;;;2.42;2.22;;;28.80;99.90;;;;;;5179611;28;20501;-77
2022/08/04 11:29:14;;;;;;;3.03;2.33;;;28.80;99.90;;;;;;5165951;28;20022;-76
2022/08/04 11:31:48;;;;;;;4.60;2.95;;;29.20;99.90;;;;;;5165941;28;20030;-77
2022/08/04 11:34:24;;;;;;;4.55;2.95;;;28.00;99.90;;;;;;5167973;28;20046;-75
2022/08/04 11:37:23;;;;;;;5.45;4.03;;;28.50;99.90;;;;;;5185798;28;20378;-76
2022/08/04 11:40:01;;;;;;;6.95;4.03;;;28.70;99.90;;;;;;5187414;28;20026;-76
2022/08/04 11:42:47;;;;;;;8.10;4.77;;;27.70;99.90;;;;;;5170907;28;20390;-76
2022/08/04 11:45:40;;;;;;;2.30;2.00;;;27.80;99.90;;;;;;5187272;28;20080;-76
2022/08/04 11:48:18;;;;;;;4.85;2.72;;;27.80;99.90;;;;;;5170698;28;20033;-75
2022/08/04 11:50:52;;;;;;;2.53;2.00;;;28.10;99.90;;;;;;5181167;28;20080;-75
2022/08/04 11:53:26;;;;;;;3.00;2.10;;;28.00;99.90;;;;;;5177269;28;20055;-78
2022/08/04 11:56:00;;;;;;;3.58;2.33;;;27.70;99.90;;;;;;5170682;28;20040;-75
2022/08/04 11:58:31;;;;;;;5.68;3.50;;;27.40;99.90;;;;;;5165427;28;20030;-77
2022/08/04 12:01:08;;;;;;;6.55;3.85;;;27.40;99.90;;;;;;5165434;28;20026;-75
2022/08/04 12:04:07;;;;;;;3.97;3.10;;;27.90;99.90;;;;;;5179246;28;20041;-75
2022/08/04 12:07:06;;;;;;;6.25;4.30;;;27.60;99.90;;;;;;5182343;28;20031;-76
2022/08/04 12:09:46;;;;;;;3.63;2.25;;;27.90;99.90;;;;;;5178864;28;20026;-74
2022/08/04 12:12:36;;;;;;;10.35;5.18;;;27.70;99.90;;;;;;5184804;28;20347;-75
2022/08/04 12:15:31;;;;;;;5.40;3.83;;;27.50;99.90;;;;;;5174244;28;20038;-75
2022/08/04 12:18:02;;;;;;;2.75;1.90;;;27.90;99.90;;;;;;5171849;28;20026;-77
2022/08/04 12:20:44;;;;;;;3.58;2.40;;;28.20;99.90;;;;;;5170035;28;20500;-78
2022/08/04 12:23:37;;;;;;;3.55;2.63;;;27.60;99.90;;;;;;5186493;28;20119;-78
2022/08/04 12:26:24;;;;;;;5.80;3.00;;;27.70;99.90;;;;;;5185680;28;20058;-76
2022/08/04 12:28:59;;;;;;;2.40;1.92;;;28.00;99.90;;;;;;5179247;28;20453;-77
2022/08/04 12:31:41;;;;;;;2.00;1.77;;;27.70;99.90;;;;;;5166002;28;20050;-75
2022/08/04 12:34:47;;;;;;;5.13;2.92;;;28.00;99.90;;;;;;5166792;28;20034;-78
2022/08/04 12:37:40;;;;;;;2.95;2.17;;;27.90;99.90;;;;;;5186114;28;20041;-76
2022/08/04 12:40:19;;;;;;;1.88;1.67;;;28.20;99.90;;;;;;5186376;28;20080;-77
2022/08/04 12:42:57;;;;;;;;;;;27.70;99.90;;;;;;5179198;28;20034;-77
2022/08/04 12:45:29;;;;;;;3.13;2.10;;;27.60;99.90;;;;;;5165659;28;19906;-75
2022/08/04 12:48:03;;;;;;;2.03;1.70;;;27.60;99.90;;;;;;5179558;28;20048;-75
2022/08/04 12:50:35;;;;;;;3.97;2.38;;;27.90;99.90;;;;;;5181078;28;20109;-76
2022/08/04 12:53:15;;;;;;;2.33;1.90;;;27.90;99.90;;;;;;5165655;28;20033;-75
2022/08/04 12:55:50;;;;;;;2.97;1.80;;;27.90;99.90;;;;;;5166845;28;20050;-75
2022/08/04 12:58:24;;;;;;;2.60;1.73;;;28.60;99.90;;;;;;5164320;28;20023;-75
2022/08/04 13:01:17;;;;;;;1.95;1.63;;;28.20;99.90;;;;;;5164592;28;20470;-77
2022/08/04 13:04:25;;;;;;;4.57;1.98;;;28.40;99.90;;;;;;5178210;28;20041;-75
2022/08/04 13:07:09;;;;;;;1.77;1.63;;;28.20;99.90;;;;;;5183989;28;20049;-74
2022/08/04 13:09:41;;;;;;;4.70;1.90;;;28.00;99.90;;;;;;5171622;28;20030;-75
2022/08/04 13:12:16;;;;;;;3.58;2.47;;;27.80;99.90;;;;;;5181635;28;20026;-74
2022/08/04 13:14:50;;;;;;;4.30;2.30;;;27.80;99.90;;;;;;5165319;28;20049;-75
2022/08/04 13:17:21;;;;;;;7.50;3.60;;;27.70;99.90;;;;;;5164295;28;20117;-75
2022/08/04 13:19:53;;;;;;;5.05;2.90;;;27.80;99.90;;;;;;5180190;28;20109;-76
2022/08/04 13:22:26;;;;;;;3.40;2.28;;;27.90;99.90;;;;;;5185517;28;20018;-74
2022/08/04 13:24:59;;;;;;;2.42;2.08;;;28.40;99.90;;;;;;5177924;28;20041;-76
2022/08/04 13:27:30;;;;;;;3.33;2.33;;;28.00;99.90;;;;;;5165466;28;20034;-75
2022/08/04 13:30:02;;;;;;;3.65;1.80;;;27.60;99.90;;;;;;5165304;28;20033;-75
2022/08/04 13:32:34;;;;;;;2.75;2.20;;;27.50;99.90;;;;;;5169032;28;20093;-76
2022/08/04 13:35:08;;;;;;;5.45;2.25;;;27.60;99.90;;;;;;5177136;28;20045;-78
2022/08/04 13:37:41;;;;;;;2.63;2.20;;;27.40;99.90;;;;;;5164206;28;20022;-76
2022/08/04 13:40:14;;;;;;;4.47;2.55;;;27.60;99.90;;;;;;5181394;28;20076;-75
2022/08/04 13:42:46;;;;;;;3.55;1.83;;;27.60;99.90;;;;;;5184160;28;20033;-76
2022/08/04 13:45:22;;;;;;;3.30;2.22;;;27.50;99.90;;;;;;5185543;28;20026;-77
2022/08/04 13:47:59;;;;;;;6.20;2.85;;;27.30;99.90;;;;;;5170803;28;20022;-75
2022/08/04 13:50:32;;;;;;;3.08;2.17;;;28.10;99.90;;;;;;5184456;28;20025;-75
2022/08/04 13:53:03;;;;;;;2.65;2.00;;;28.00;99.90;;;;;;5185355;28;20022;-76
2022/08/04 13:55:35;;;;;;;2.55;1.80;;;28.80;99.90;;;;;;5172034;28;20093;-78
2022/08/04 13:58:24;;;;;;;1.92;1.42;;;28.70;99.90;;;;;;5166735;28;20030;-77
2022/08/04 14:01:06;;;;;;;2.92;1.90;;;28.80;99.90;;;;;;5175813;28;20087;-76
2022/08/04 14:03:40;;;;;;;5.75;1.92;;;29.30;99.90;;;;;;5175587;28;20057;-75
2022/08/04 14:06:22;;;;;;;4.13;1.60;;;28.70;99.90;;;;;;5169669;28;20030;-77